sensor_id;sensor_type;location;lat;lon;timestamp;P1;durP1;ratioP1;P2;durP2;ratioP2
38853;SDS011;24606;51.992;4.198;2022-12-18T00:04:20;22.37;;;12.10;;
38853;SDS011;24606;51.992;4.198;2022-12-18T00:09:23;24.83;;;12.63;;
38853;SDS011;24606;51.992;4.198;2022-12-18T00:14:25;31.13;;;16.23;;
38853;SDS011;24606;51.992;4.198;2022-12-18T00:19:28;31.50;;;16.53;;
38853;SDS011;24606;51.992;4.198;2022-12-18T00:24:30;30.13;;;16.10;;
38853;SDS011;24606;51.992;4.198;2022-12-18T00:29:32;31.25;;;16.40;;
38853;SDS011;24606;51.992;4.198;2022-12-18T00:34:35;20.33;;;10.57;;
38853;SDS011;24606;51.992;4.198;2022-12-18T00:39:37;22.27;;;11.90;;
38853;SDS011;24606;51.992;4.198;2022-12-18T00:44:39;24.67;;;13.13;;
38853;SDS011;24606;51.992;4.198;2022-12-18T00:49:42;25.37;;;13.43;;
38853;SDS011;24606;51.992;4.198;2022-12-18T00:54:44;26.45;;;14.10;;
38853;SDS011;24606;51.992;4.198;2022-12-18T00:59:46;28.37;;;15.27;;
38853;SDS011;24606;51.992;4.198;2022-12-18T01:04:50;31.95;;;16.13;;
38853;SDS011;24606;51.992;4.198;2022-12-18T01:09:52;31.23;;;16.88;;
38853;SDS011;24606;51.992;4.198;2022-12-18T01:14:54;27.17;;;14.37;;
38853;SDS011;24606;51.992;4.198;2022-12-18T01:19:57;22.63;;;13.10;;
38853;SDS011;24606;51.992;4.198;2022-12-18T01:24:59;28.88;;;14.65;;
38853;SDS011;24606;51.992;4.198;2022-12-18T01:30:01;27.77;;;13.87;;
38853;SDS011;24606;51.992;4.198;2022-12-18T01:35:06;26.83;;;13.95;;
38853;SDS011;24606;51.992;4.198;2022-12-18T01:40:08;28.30;;;13.40;;
38853;SDS011;24606;51.992;4.198;2022-12-18T01:50:33;26.63;;;13.75;;
38853;SDS011;24606;51.992;4.198;2022-12-18T01:55:39;30.83;;;13.75;;
38853;SDS011;24606;51.992;4.198;2022-12-18T02:00:44;24.88;;;12.40;;
38853;SDS011;24606;51.992;4.198;2022-12-18T02:05:49;30.90;;;15.30;;
38853;SDS011;24606;51.992;4.198;2022-12-18T02:10:57;26.20;;;13.60;;
38853;SDS011;24606;51.992;4.198;2022-12-18T02:16:07;26.58;;;13.75;;
38853;SDS011;24606;51.992;4.198;2022-12-18T02:21:20;22.52;;;11.57;;
38853;SDS011;24606;51.992;4.198;2022-12-18T02:26:30;24.92;;;12.27;;
38853;SDS011;24606;51.992;4.198;2022-12-18T02:31:36;29.45;;;10.90;;
38853;SDS011;24606;51.992;4.198;2022-12-18T02:36:43;25.40;;;12.05;;
38853;SDS011;24606;51.992;4.198;2022-12-18T02:41:48;21.85;;;11.60;;
38853;SDS011;24606;51.992;4.198;2022-12-18T02:46:50;28.95;;;12.73;;
38853;SDS011;24606;51.992;4.198;2022-12-18T02:51:55;28.50;;;13.88;;
38853;SDS011;24606;51.992;4.198;2022-12-18T02:57:05;23.05;;;10.85;;
38853;SDS011;24606;51.992;4.198;2022-12-18T03:02:17;27.75;;;12.65;;
38853;SDS011;24606;51.992;4.198;2022-12-18T03:07:26;21.10;;;10.70;;
38853;SDS011;24606;51.992;4.198;2022-12-18T03:12:37;24.75;;;12.38;;
38853;SDS011;24606;51.992;4.198;2022-12-18T03:17:43;22.92;;;11.77;;
38853;SDS011;24606;51.992;4.198;2022-12-18T03:22:52;21.95;;;11.07;;
38853;SDS011;24606;51.992;4.198;2022-12-18T03:28:00;25.05;;;13.02;;
38853;SDS011;24606;51.992;4.198;2022-12-18T03:33:05;22.98;;;11.13;;
38853;SDS011;24606;51.992;4.198;2022-12-18T03:38:11;22.00;;;10.82;;
38853;SDS011;24606;51.992;4.198;2022-12-18T03:43:16;22.27;;;11.18;;
38853;SDS011;24606;51.992;4.198;2022-12-18T03:48:24;22.92;;;11.82;;
38853;SDS011;24606;51.992;4.198;2022-12-18T03:53:32;21.35;;;10.43;;
38853;SDS011;24606;51.992;4.198;2022-12-18T03:58:40;24.80;;;11.80;;
38853;SDS011;24606;51.992;4.198;2022-12-18T04:03:44;21.13;;;10.70;;
38853;SDS011;24606;51.992;4.198;2022-12-18T04:08:50;19.15;;;10.48;;
38853;SDS011;24606;51.992;4.198;2022-12-18T04:13:56;20.07;;;10.70;;
38853;SDS011;24606;51.992;4.198;2022-12-18T04:18:58;20.17;;;10.30;;
38853;SDS011;24606;51.992;4.198;2022-12-18T04:24:00;19.60;;;9.87;;
38853;SDS011;24606;51.992;4.198;2022-12-18T04:29:03;20.95;;;10.45;;
38853;SDS011;24606;51.992;4.198;2022-12-18T04:34:05;21.45;;;10.32;;
38853;SDS011;24606;51.992;4.198;2022-12-18T04:39:07;20.90;;;10.30;;
38853;SDS011;24606;51.992;4.198;2022-12-18T04:44:11;18.57;;;9.80;;
38853;SDS011;24606;51.992;4.198;2022-12-18T04:49:12;16.80;;;9.38;;
38853;SDS011;24606;51.992;4.198;2022-12-18T04:54:14;19.87;;;9.13;;
38853;SDS011;24606;51.992;4.198;2022-12-18T04:59:18;17.40;;;9.40;;
38853;SDS011;24606;51.992;4.198;2022-12-18T05:04:20;23.92;;;9.88;;
38853;SDS011;24606;51.992;4.198;2022-12-18T05:09:22;19.17;;;9.23;;
38853;SDS011;24606;51.992;4.198;2022-12-18T05:19:29;16.92;;;8.38;;
38853;SDS011;24606;51.992;4.198;2022-12-18T05:24:31;16.10;;;8.10;;
38853;SDS011;24606;51.992;4.198;2022-12-18T05:29:35;15.40;;;7.22;;
38853;SDS011;24606;51.992;4.198;2022-12-18T05:34:37;13.70;;;8.10;;
38853;SDS011;24606;51.992;4.198;2022-12-18T05:39:39;13.80;;;7.70;;
38853;SDS011;24606;51.992;4.198;2022-12-18T05:44:42;15.77;;;6.93;;
38853;SDS011;24606;51.992;4.198;2022-12-18T05:49:44;13.68;;;7.55;;
38853;SDS011;24606;51.992;4.198;2022-12-18T05:54:46;16.27;;;8.50;;
38853;SDS011;24606;51.992;4.198;2022-12-18T05:59:49;10.77;;;6.67;;
38853;SDS011;24606;51.992;4.198;2022-12-18T06:04:51;11.45;;;6.38;;
38853;SDS011;24606;51.992;4.198;2022-12-18T06:09:53;13.67;;;6.83;;
38853;SDS011;24606;51.992;4.198;2022-12-18T06:14:56;12.07;;;7.00;;
38853;SDS011;24606;51.992;4.198;2022-12-18T06:19:58;12.30;;;6.60;;
38853;SDS011;24606;51.992;4.198;2022-12-18T06:25:00;14.18;;;7.40;;
38853;SDS011;24606;51.992;4.198;2022-12-18T06:30:03;11.23;;;6.23;;
38853;SDS011;24606;51.992;4.198;2022-12-18T06:35:06;12.23;;;6.43;;
38853;SDS011;24606;51.992;4.198;2022-12-18T06:45:12;12.02;;;6.72;;
38853;SDS011;24606;51.992;4.198;2022-12-18T06:50:14;9.60;;;5.90;;
38853;SDS011;24606;51.992;4.198;2022-12-18T06:55:16;10.90;;;6.13;;
38853;SDS011;24606;51.992;4.198;2022-12-18T07:00:20;10.13;;;6.28;;
38853;SDS011;24606;51.992;4.198;2022-12-18T07:15:27;11.88;;;6.30;;
38853;SDS011;24606;51.992;4.198;2022-12-18T07:20:29;10.68;;;5.68;;
38853;SDS011;24606;51.992;4.198;2022-12-18T07:25:33;10.07;;;5.65;;
38853;SDS011;24606;51.992;4.198;2022-12-18T07:30:38;10.60;;;6.07;;
38853;SDS011;24606;51.992;4.198;2022-12-18T07:35:39;11.65;;;6.18;;
38853;SDS011;24606;51.992;4.198;2022-12-18T07:40:41;8.93;;;5.67;;
38853;SDS011;24606;51.992;4.198;2022-12-18T07:45:44;10.50;;;5.90;;
38853;SDS011;24606;51.992;4.198;2022-12-18T07:50:46;9.55;;;5.13;;
38853;SDS011;24606;51.992;4.198;2022-12-18T07:55:49;17.13;;;6.28;;
38853;SDS011;24606;51.992;4.198;2022-12-18T08:01:02;8.00;;;4.95;;
38853;SDS011;24606;51.992;4.198;2022-12-18T08:06:06;10.75;;;5.35;;
38853;SDS011;24606;51.992;4.198;2022-12-18T08:11:10;8.85;;;5.10;;
38853;SDS011;24606;51.992;4.198;2022-12-18T08:16:13;8.83;;;5.20;;
38853;SDS011;24606;51.992;4.198;2022-12-18T08:21:15;8.30;;;5.22;;
38853;SDS011;24606;51.992;4.198;2022-12-18T08:26:21;9.77;;;4.50;;
38853;SDS011;24606;51.992;4.198;2022-12-18T08:36:27;8.30;;;4.65;;
38853;SDS011;24606;51.992;4.198;2022-12-18T08:41:29;13.47;;;6.40;;
38853;SDS011;24606;51.992;4.198;2022-12-18T08:46:33;8.85;;;5.10;;
38853;SDS011;24606;51.992;4.198;2022-12-18T08:51:37;11.25;;;5.10;;
38853;SDS011;24606;51.992;4.198;2022-12-18T08:56:40;8.90;;;4.90;;
38853;SDS011;24606;51.992;4.198;2022-12-18T09:01:44;7.72;;;4.68;;
38853;SDS011;24606;51.992;4.198;2022-12-18T09:06:48;9.27;;;4.28;;
38853;SDS011;24606;51.992;4.198;2022-12-18T09:11:53;6.40;;;3.97;;
38853;SDS011;24606;51.992;4.198;2022-12-18T09:16:56;11.75;;;5.72;;
38853;SDS011;24606;51.992;4.198;2022-12-18T09:21:58;8.57;;;5.35;;
38853;SDS011;24606;51.992;4.198;2022-12-18T09:27:00;6.68;;;3.92;;
38853;SDS011;24606;51.992;4.198;2022-12-18T09:32:04;5.63;;;3.70;;
38853;SDS011;24606;51.992;4.198;2022-12-18T09:37:06;5.60;;;3.35;;
38853;SDS011;24606;51.992;4.198;2022-12-18T09:42:08;6.57;;;3.92;;
38853;SDS011;24606;51.992;4.198;2022-12-18T09:47:18;5.75;;;3.95;;
38853;SDS011;24606;51.992;4.198;2022-12-18T09:52:25;7.57;;;3.42;;
38853;SDS011;24606;51.992;4.198;2022-12-18T09:57:32;5.78;;;3.38;;
38853;SDS011;24606;51.992;4.198;2022-12-18T10:02:39;5.78;;;3.75;;
38853;SDS011;24606;51.992;4.198;2022-12-18T10:07:47;4.60;;;3.40;;
38853;SDS011;24606;51.992;4.198;2022-12-18T10:12:59;6.20;;;3.25;;
38853;SDS011;24606;51.992;4.198;2022-12-18T10:18:26;5.07;;;3.20;;
38853;SDS011;24606;51.992;4.198;2022-12-18T10:23:42;5.00;;;3.35;;
38853;SDS011;24606;51.992;4.198;2022-12-18T10:28:52;5.00;;;3.00;;
38853;SDS011;24606;51.992;4.198;2022-12-18T10:33:58;10.23;;;6.50;;
38853;SDS011;24606;51.992;4.198;2022-12-18T10:39:06;15.13;;;8.30;;
38853;SDS011;24606;51.992;4.198;2022-12-18T10:44:17;14.27;;;7.65;;
38853;SDS011;24606;51.992;4.198;2022-12-18T10:49:23;12.95;;;7.93;;
38853;SDS011;24606;51.992;4.198;2022-12-18T10:54:27;19.15;;;9.85;;
38853;SDS011;24606;51.992;4.198;2022-12-18T10:59:31;14.52;;;8.40;;
38853;SDS011;24606;51.992;4.198;2022-12-18T11:04:53;13.45;;;8.85;;
38853;SDS011;24606;51.992;4.198;2022-12-18T11:09:59;18.23;;;9.23;;
38853;SDS011;24606;51.992;4.198;2022-12-18T11:15:02;18.35;;;7.85;;
38853;SDS011;24606;51.992;4.198;2022-12-18T11:20:23;14.38;;;8.55;;
38853;SDS011;24606;51.992;4.198;2022-12-18T11:25:31;16.63;;;6.97;;
38853;SDS011;24606;51.992;4.198;2022-12-18T11:30:35;15.10;;;8.13;;
38853;SDS011;24606;51.992;4.198;2022-12-18T11:35:39;15.70;;;7.82;;
38853;SDS011;24606;51.992;4.198;2022-12-18T11:40:47;12.70;;;7.55;;
38853;SDS011;24606;51.992;4.198;2022-12-18T11:45:55;12.13;;;7.10;;
38853;SDS011;24606;51.992;4.198;2022-12-18T11:51:02;11.02;;;6.60;;
38853;SDS011;24606;51.992;4.198;2022-12-18T11:56:20;8.27;;;4.70;;
38853;SDS011;24606;51.992;4.198;2022-12-18T12:01:35;10.05;;;6.35;;
38853;SDS011;24606;51.992;4.198;2022-12-18T12:06:47;8.45;;;5.03;;
38853;SDS011;24606;51.992;4.198;2022-12-18T12:11:59;8.20;;;4.97;;
38853;SDS011;24606;51.992;4.198;2022-12-18T12:17:12;8.25;;;4.85;;
38853;SDS011;24606;51.992;4.198;2022-12-18T12:22:24;5.13;;;3.45;;
38853;SDS011;24606;51.992;4.198;2022-12-18T12:27:34;5.43;;;3.35;;
38853;SDS011;24606;51.992;4.198;2022-12-18T12:32:58;4.32;;;2.70;;
38853;SDS011;24606;51.992;4.198;2022-12-18T12:38:19;4.50;;;2.55;;
38853;SDS011;24606;51.992;4.198;2022-12-18T12:43:27;4.50;;;2.75;;
38853;SDS011;24606;51.992;4.198;2022-12-18T12:48:43;4.32;;;2.92;;
38853;SDS011;24606;51.992;4.198;2022-12-18T12:53:49;9.13;;;3.38;;
38853;SDS011;24606;51.992;4.198;2022-12-18T12:58:54;5.13;;;2.90;;
38853;SDS011;24606;51.992;4.198;2022-12-18T13:04:04;5.72;;;2.95;;
38853;SDS011;24606;51.992;4.198;2022-12-18T13:09:18;4.25;;;3.15;;
38853;SDS011;24606;51.992;4.198;2022-12-18T13:14:23;8.43;;;2.80;;
38853;SDS011;24606;51.992;4.198;2022-12-18T13:19:28;3.95;;;2.50;;
38853;SDS011;24606;51.992;4.198;2022-12-18T13:24:32;7.90;;;4.82;;
38853;SDS011;24606;51.992;4.198;2022-12-18T13:29:41;3.47;;;2.55;;
38853;SDS011;24606;51.992;4.198;2022-12-18T13:34:44;6.43;;;3.33;;
38853;SDS011;24606;51.992;4.198;2022-12-18T13:39:47;4.87;;;3.00;;
38853;SDS011;24606;51.992;4.198;2022-12-18T13:44:49;7.18;;;4.10;;
38853;SDS011;24606;51.992;4.198;2022-12-18T13:49:51;8.70;;;3.30;;
38853;SDS011;24606;51.992;4.198;2022-12-18T13:54:56;6.05;;;3.15;;
38853;SDS011;24606;51.992;4.198;2022-12-18T14:00:14;6.70;;;3.38;;
38853;SDS011;24606;51.992;4.198;2022-12-18T14:05:25;7.00;;;4.10;;
38853;SDS011;24606;51.992;4.198;2022-12-18T14:10:29;6.13;;;3.28;;
38853;SDS011;24606;51.992;4.198;2022-12-18T14:15:32;9.60;;;4.20;;
38853;SDS011;24606;51.992;4.198;2022-12-18T14:20:35;5.90;;;2.92;;
38853;SDS011;24606;51.992;4.198;2022-12-18T14:25:45;5.93;;;3.28;;
38853;SDS011;24606;51.992;4.198;2022-12-18T14:30:48;4.22;;;3.00;;
38853;SDS011;24606;51.992;4.198;2022-12-18T14:35:54;5.13;;;2.75;;
38853;SDS011;24606;51.992;4.198;2022-12-18T14:41:00;3.85;;;2.67;;
38853;SDS011;24606;51.992;4.198;2022-12-18T14:46:04;5.32;;;2.70;;
38853;SDS011;24606;51.992;4.198;2022-12-18T14:51:18;6.13;;;2.92;;
38853;SDS011;24606;51.992;4.198;2022-12-18T14:56:23;4.45;;;2.83;;
38853;SDS011;24606;51.992;4.198;2022-12-18T15:01:28;4.40;;;2.53;;
38853;SDS011;24606;51.992;4.198;2022-12-18T15:06:33;3.35;;;2.05;;
38853;SDS011;24606;51.992;4.198;2022-12-18T15:11:47;6.68;;;2.80;;
38853;SDS011;24606;51.992;4.198;2022-12-18T15:16:51;3.65;;;2.60;;
38853;SDS011;24606;51.992;4.198;2022-12-18T15:21:54;4.38;;;2.53;;
38853;SDS011;24606;51.992;4.198;2022-12-18T15:26:57;7.57;;;3.13;;
38853;SDS011;24606;51.992;4.198;2022-12-18T15:32:00;4.47;;;3.00;;
38853;SDS011;24606;51.992;4.198;2022-12-18T15:37:04;4.95;;;3.00;;
38853;SDS011;24606;51.992;4.198;2022-12-18T15:42:08;9.47;;;4.20;;
38853;SDS011;24606;51.992;4.198;2022-12-18T15:47:28;8.05;;;4.90;;
38853;SDS011;24606;51.992;4.198;2022-12-18T15:52:30;7.23;;;4.70;;
38853;SDS011;24606;51.992;4.198;2022-12-18T15:57:38;9.20;;;4.88;;
38853;SDS011;24606;51.992;4.198;2022-12-18T16:02:40;13.90;;;6.90;;
38853;SDS011;24606;51.992;4.198;2022-12-18T16:07:42;8.30;;;4.53;;
38853;SDS011;24606;51.992;4.198;2022-12-18T16:12:45;12.70;;;6.10;;
38853;SDS011;24606;51.992;4.198;2022-12-18T16:17:47;6.50;;;3.45;;
38853;SDS011;24606;51.992;4.198;2022-12-18T16:22:49;9.10;;;5.17;;
38853;SDS011;24606;51.992;4.198;2022-12-18T16:27:53;8.88;;;5.22;;
38853;SDS011;24606;51.992;4.198;2022-12-18T16:32:56;9.50;;;5.03;;
38853;SDS011;24606;51.992;4.198;2022-12-18T16:37:58;12.57;;;5.45;;
38853;SDS011;24606;51.992;4.198;2022-12-18T16:43:01;5.63;;;3.38;;
38853;SDS011;24606;51.992;4.198;2022-12-18T16:48:03;8.95;;;5.15;;
38853;SDS011;24606;51.992;4.198;2022-12-18T16:53:05;11.40;;;5.73;;
38853;SDS011;24606;51.992;4.198;2022-12-18T16:58:09;8.48;;;4.70;;
38853;SDS011;24606;51.992;4.198;2022-12-18T17:03:12;15.23;;;8.82;;
38853;SDS011;24606;51.992;4.198;2022-12-18T17:08:16;16.27;;;7.97;;
38853;SDS011;24606;51.992;4.198;2022-12-18T17:18:39;14.63;;;7.13;;
38853;SDS011;24606;51.992;4.198;2022-12-18T17:23:41;15.73;;;8.45;;
38853;SDS011;24606;51.992;4.198;2022-12-18T17:28:45;17.25;;;8.57;;
38853;SDS011;24606;51.992;4.198;2022-12-18T17:33:47;15.23;;;8.13;;
38853;SDS011;24606;51.992;4.198;2022-12-18T17:38:50;6.82;;;4.13;;
38853;SDS011;24606;51.992;4.198;2022-12-18T17:43:55;10.23;;;4.25;;
38853;SDS011;24606;51.992;4.198;2022-12-18T17:48:58;8.02;;;4.10;;
38853;SDS011;24606;51.992;4.198;2022-12-18T17:54:01;7.28;;;5.10;;
38853;SDS011;24606;51.992;4.198;2022-12-18T18:04:07;9.77;;;5.70;;
38853;SDS011;24606;51.992;4.198;2022-12-18T18:09:09;11.80;;;6.75;;
38853;SDS011;24606;51.992;4.198;2022-12-18T18:14:13;10.43;;;5.17;;
38853;SDS011;24606;51.992;4.198;2022-12-18T18:19:18;10.45;;;5.00;;
38853;SDS011;24606;51.992;4.198;2022-12-18T18:24:22;10.52;;;5.63;;
38853;SDS011;24606;51.992;4.198;2022-12-18T18:29:26;10.15;;;4.88;;
38853;SDS011;24606;51.992;4.198;2022-12-18T18:34:30;14.82;;;7.88;;
38853;SDS011;24606;51.992;4.198;2022-12-18T18:44:36;19.17;;;8.05;;
38853;SDS011;24606;51.992;4.198;2022-12-18T18:49:37;11.57;;;6.97;;
38853;SDS011;24606;51.992;4.198;2022-12-18T18:54:40;17.73;;;7.28;;
38853;SDS011;24606;51.992;4.198;2022-12-18T18:59:43;16.67;;;7.80;;
38853;SDS011;24606;51.992;4.198;2022-12-18T19:04:47;16.95;;;7.70;;
38853;SDS011;24606;51.992;4.198;2022-12-18T19:09:49;15.18;;;7.97;;
38853;SDS011;24606;51.992;4.198;2022-12-18T19:14:54;14.07;;;6.82;;
38853;SDS011;24606;51.992;4.198;2022-12-18T19:19:56;16.27;;;8.32;;
38853;SDS011;24606;51.992;4.198;2022-12-18T19:24:58;17.27;;;7.75;;
38853;SDS011;24606;51.992;4.198;2022-12-18T19:30:01;18.53;;;6.90;;
38853;SDS011;24606;51.992;4.198;2022-12-18T19:35:04;21.38;;;7.60;;
38853;SDS011;24606;51.992;4.198;2022-12-18T19:40:06;14.30;;;7.63;;
38853;SDS011;24606;51.992;4.198;2022-12-18T19:45:10;19.80;;;7.47;;
38853;SDS011;24606;51.992;4.198;2022-12-18T19:50:12;13.63;;;7.53;;
38853;SDS011;24606;51.992;4.198;2022-12-18T19:55:14;16.95;;;7.95;;
38853;SDS011;24606;51.992;4.198;2022-12-18T20:00:17;17.03;;;7.60;;
38853;SDS011;24606;51.992;4.198;2022-12-18T20:05:19;15.05;;;7.85;;
38853;SDS011;24606;51.992;4.198;2022-12-18T20:10:24;18.30;;;8.45;;
38853;SDS011;24606;51.992;4.198;2022-12-18T20:15:27;14.00;;;7.78;;
38853;SDS011;24606;51.992;4.198;2022-12-18T20:20:29;16.38;;;8.23;;
38853;SDS011;24606;51.992;4.198;2022-12-18T20:25:31;17.03;;;7.00;;
38853;SDS011;24606;51.992;4.198;2022-12-18T20:30:34;15.50;;;7.87;;
38853;SDS011;24606;51.992;4.198;2022-12-18T20:35:36;14.35;;;7.45;;
38853;SDS011;24606;51.992;4.198;2022-12-18T20:40:39;16.17;;;8.35;;
38853;SDS011;24606;51.992;4.198;2022-12-18T20:45:42;16.67;;;7.85;;
38853;SDS011;24606;51.992;4.198;2022-12-18T20:50:44;19.05;;;8.68;;
38853;SDS011;24606;51.992;4.198;2022-12-18T20:55:46;16.13;;;8.63;;
38853;SDS011;24606;51.992;4.198;2022-12-18T21:00:49;24.30;;;9.67;;
38853;SDS011;24606;51.992;4.198;2022-12-18T21:06:02;20.33;;;9.73;;
38853;SDS011;24606;51.992;4.198;2022-12-18T21:16:34;26.08;;;10.70;;
38853;SDS011;24606;51.992;4.198;2022-12-18T21:21:36;23.33;;;11.77;;
38853;SDS011;24606;51.992;4.198;2022-12-18T21:26:43;23.13;;;10.90;;
38853;SDS011;24606;51.992;4.198;2022-12-18T21:31:47;20.33;;;10.32;;
38853;SDS011;24606;51.992;4.198;2022-12-18T21:36:49;15.73;;;7.40;;
38853;SDS011;24606;51.992;4.198;2022-12-18T21:41:52;16.35;;;8.48;;
38853;SDS011;24606;51.992;4.198;2022-12-18T21:47:13;22.65;;;10.82;;
38853;SDS011;24606;51.992;4.198;2022-12-18T21:52:15;17.15;;;8.60;;
38853;SDS011;24606;51.992;4.198;2022-12-18T21:57:17;19.73;;;8.57;;
38853;SDS011;24606;51.992;4.198;2022-12-18T22:02:20;20.07;;;9.00;;
38853;SDS011;24606;51.992;4.198;2022-12-18T22:07:23;18.52;;;9.25;;
38853;SDS011;24606;51.992;4.198;2022-12-18T22:12:25;18.80;;;9.07;;
38853;SDS011;24606;51.992;4.198;2022-12-18T22:17:37;18.38;;;10.27;;
38853;SDS011;24606;51.992;4.198;2022-12-18T22:22:39;15.27;;;7.18;;
38853;SDS011;24606;51.992;4.198;2022-12-18T22:27:41;12.90;;;6.73;;
38853;SDS011;24606;51.992;4.198;2022-12-18T22:33:05;15.70;;;8.18;;
38853;SDS011;24606;51.992;4.198;2022-12-18T22:38:06;12.07;;;6.55;;
38853;SDS011;24606;51.992;4.198;2022-12-18T22:43:08;19.67;;;9.03;;
38853;SDS011;24606;51.992;4.198;2022-12-18T22:48:11;20.53;;;10.20;;
38853;SDS011;24606;51.992;4.198;2022-12-18T22:53:13;21.23;;;11.30;;
38853;SDS011;24606;51.992;4.198;2022-12-18T22:58:15;25.97;;;10.07;;
38853;SDS011;24606;51.992;4.198;2022-12-18T23:03:18;19.37;;;9.00;;
38853;SDS011;24606;51.992;4.198;2022-12-18T23:08:20;16.27;;;9.15;;
38853;SDS011;24606;51.992;4.198;2022-12-18T23:13:22;14.35;;;7.97;;
38853;SDS011;24606;51.992;4.198;2022-12-18T23:18:25;14.70;;;6.70;;
38853;SDS011;24606;51.992;4.198;2022-12-18T23:23:28;15.00;;;7.40;;
38853;SDS011;24606;51.992;4.198;2022-12-18T23:28:30;19.05;;;10.10;;
38853;SDS011;24606;51.992;4.198;2022-12-18T23:33:34;16.02;;;8.07;;
38853;SDS011;24606;51.992;4.198;2022-12-18T23:38:36;13.63;;;6.63;;
38853;SDS011;24606;51.992;4.198;2022-12-18T23:43:38;12.53;;;6.37;;
38853;SDS011;24606;51.992;4.198;2022-12-18T23:48:41;13.77;;;7.60;;
38853;SDS011;24606;51.992;4.198;2022-12-18T23:53:43;13.80;;;7.95;;
38853;SDS011;24606;51.992;4.198;2022-12-18T23:58:46;10.40;;;5.68;;
